sensor_id;sensor_type;location;lat;lon;timestamp;P1;P2;P0
71794;PMS7003;59641;45.188;5.712;2024-01-27T00:01:46;24.75;22.50;16.75
71794;PMS7003;59641;45.188;5.712;2024-01-27T00:04:12;22.25;20.50;17.00
71794;PMS7003;59641;45.188;5.712;2024-01-27T00:06:37;23.50;23.50;15.25
71794;PMS7003;59641;45.188;5.712;2024-01-27T00:09:02;21.00;20.25;15.75
71794;PMS7003;59641;45.188;5.712;2024-01-27T00:11:30;20.75;20.75;15.25
71794;PMS7003;59641;45.188;5.712;2024-01-27T00:13:55;21.25;20.00;13.75
71794;PMS7003;59641;45.188;5.712;2024-01-27T00:16:21;17.50;16.00;12.75
71794;PMS7003;59641;45.188;5.712;2024-01-27T00:18:46;17.00;14.50;11.25
71794;PMS7003;59641;45.188;5.712;2024-01-27T00:21:11;10.75;9.75;8.25
71794;PMS7003;59641;45.188;5.712;2024-01-27T00:23:37;16.50;14.50;9.75
71794;PMS7003;59641;45.188;5.712;2024-01-27T00:26:02;16.50;15.75;10.50
71794;PMS7003;59641;45.188;5.712;2024-01-27T00:28:28;15.00;15.00;10.25
71794;PMS7003;59641;45.188;5.712;2024-01-27T00:30:54;12.50;11.25;10.25
71794;PMS7003;59641;45.188;5.712;2024-01-27T00:33:19;18.25;17.25;14.75
71794;PMS7003;59641;45.188;5.712;2024-01-27T00:35:44;18.50;16.50;12.25
71794;PMS7003;59641;45.188;5.712;2024-01-27T00:38:10;19.00;16.75;14.00
71794;PMS7003;59641;45.188;5.712;2024-01-27T00:40:35;19.50;18.00;14.25
71794;PMS7003;59641;45.188;5.712;2024-01-27T00:43:03;20.25;18.50;13.00
71794;PMS7003;59641;45.188;5.712;2024-01-27T00:45:29;15.50;15.25;12.00
71794;PMS7003;59641;45.188;5.712;2024-01-27T00:47:55;21.75;18.50;15.00
71794;PMS7003;59641;45.188;5.712;2024-01-27T00:50:21;23.75;21.00;14.00
71794;PMS7003;59641;45.188;5.712;2024-01-27T00:52:46;23.50;21.75;16.25
71794;PMS7003;59641;45.188;5.712;2024-01-27T00:55:12;27.00;24.00;18.50
71794;PMS7003;59641;45.188;5.712;2024-01-27T00:57:37;30.00;23.67;17.33
71794;PMS7003;59641;45.188;5.712;2024-01-27T01:00:06;31.33;29.00;19.00
71794;PMS7003;59641;45.188;5.712;2024-01-27T01:02:33;32.00;30.33;20.67
71794;PMS7003;59641;45.188;5.712;2024-01-27T01:04:59;36.67;30.33;22.33
71794;PMS7003;59641;45.188;5.712;2024-01-27T01:07:25;37.00;31.67;21.33
71794;PMS7003;59641;45.188;5.712;2024-01-27T01:09:50;34.00;27.00;21.00
71794;PMS7003;59641;45.188;5.712;2024-01-27T01:12:16;38.33;32.33;22.33
71794;PMS7003;59641;45.188;5.712;2024-01-27T01:14:42;32.00;30.33;19.33
71794;PMS7003;59641;45.188;5.712;2024-01-27T01:17:08;36.25;30.25;19.00
71794;PMS7003;59641;45.188;5.712;2024-01-27T01:19:33;37.00;30.33;20.00
71794;PMS7003;59641;45.188;5.712;2024-01-27T01:21:59;30.33;27.67;20.33
71794;PMS7003;59641;45.188;5.712;2024-01-27T01:24:24;31.33;29.00;19.33
71794;PMS7003;59641;45.188;5.712;2024-01-27T01:26:49;30.00;25.00;19.50
71794;PMS7003;59641;45.188;5.712;2024-01-27T01:29:15;25.50;24.75;18.00
71794;PMS7003;59641;45.188;5.712;2024-01-27T01:31:42;26.00;25.75;16.00
71794;PMS7003;59641;45.188;5.712;2024-01-27T01:34:08;23.50;22.75;17.50
71794;PMS7003;59641;45.188;5.712;2024-01-27T01:36:33;32.67;29.67;20.00
71794;PMS7003;59641;45.188;5.712;2024-01-27T01:38:58;31.50;29.00;20.00
71794;PMS7003;59641;45.188;5.712;2024-01-27T01:41:24;29.00;27.50;19.50
71794;PMS7003;59641;45.188;5.712;2024-01-27T01:43:49;35.00;30.00;21.00
71794;PMS7003;59641;45.188;5.712;2024-01-27T01:46:15;34.67;31.67;22.00
71794;PMS7003;59641;45.188;5.712;2024-01-27T01:48:40;37.33;31.33;23.00
71794;PMS7003;59641;45.188;5.712;2024-01-27T01:51:05;39.00;30.67;20.00
71794;PMS7003;59641;45.188;5.712;2024-01-27T01:53:31;32.67;28.67;22.00
71794;PMS7003;59641;45.188;5.712;2024-01-27T01:55:56;23.33;18.33;11.00
71794;PMS7003;59641;45.188;5.712;2024-01-27T01:58:23;27.00;27.00;19.00
71794;PMS7003;59641;45.188;5.712;2024-01-27T02:00:48;19.67;19.00;11.00
71794;PMS7003;59641;45.188;5.712;2024-01-27T02:03:14;32.67;30.00;21.67
71794;PMS7003;59641;45.188;5.712;2024-01-27T02:05:39;31.67;30.00;20.00
71794;PMS7003;59641;45.188;5.712;2024-01-27T02:08:05;34.00;30.33;20.00
71794;PMS7003;59641;45.188;5.712;2024-01-27T02:10:30;35.33;30.00;22.00
71794;PMS7003;59641;45.188;5.712;2024-01-27T02:13:02;40.00;33.67;23.00
71794;PMS7003;59641;45.188;5.712;2024-01-27T02:15:28;36.00;32.00;23.00
71794;PMS7003;59641;45.188;5.712;2024-01-27T02:17:53;44.00;36.00;24.67
71794;PMS7003;59641;45.188;5.712;2024-01-27T02:20:19;44.33;35.00;24.00
71794;PMS7003;59641;45.188;5.712;2024-01-27T02:22:44;42.00;35.33;23.00
71794;PMS7003;59641;45.188;5.712;2024-01-27T02:25:09;31.00;30.00;20.00
71794;PMS7003;59641;45.188;5.712;2024-01-27T02:27:35;30.00;27.25;19.75
71794;PMS7003;59641;45.188;5.712;2024-01-27T02:30:00;23.50;19.50;15.75
71794;PMS7003;59641;45.188;5.712;2024-01-27T02:32:26;22.00;18.00;13.75
71794;PMS7003;59641;45.188;5.712;2024-01-27T02:34:51;13.75;13.75;11.00
71794;PMS7003;59641;45.188;5.712;2024-01-27T02:37:17;16.25;15.50;11.25
71794;PMS7003;59641;45.188;5.712;2024-01-27T02:39:43;11.50;11.50;10.00
71794;PMS7003;59641;45.188;5.712;2024-01-27T02:42:08;14.50;13.50;10.00
71794;PMS7003;59641;45.188;5.712;2024-01-27T02:44:34;15.00;15.00;10.50
71794;PMS7003;59641;45.188;5.712;2024-01-27T02:46:59;18.25;15.75;11.75
71794;PMS7003;59641;45.188;5.712;2024-01-27T02:49:24;20.25;17.00;12.25
71794;PMS7003;59641;45.188;5.712;2024-01-27T02:51:50;19.75;19.25;13.50
71794;PMS7003;59641;45.188;5.712;2024-01-27T02:54:15;24.50;20.75;16.25
71794;PMS7003;59641;45.188;5.712;2024-01-27T02:56:40;21.50;17.75;12.50
71794;PMS7003;59641;45.188;5.712;2024-01-27T02:59:06;24.75;22.50;17.00
71794;PMS7003;59641;45.188;5.712;2024-01-27T03:01:31;22.50;20.75;15.00
71794;PMS7003;59641;45.188;5.712;2024-01-27T03:03:57;21.33;19.00;14.33
71794;PMS7003;59641;45.188;5.712;2024-01-27T03:06:22;23.50;22.00;17.00
71794;PMS7003;59641;45.188;5.712;2024-01-27T03:08:47;22.75;22.50;17.00
71794;PMS7003;59641;45.188;5.712;2024-01-27T03:11:13;27.25;25.50;17.75
71794;PMS7003;59641;45.188;5.712;2024-01-27T03:13:38;28.25;24.25;16.50
71794;PMS7003;59641;45.188;5.712;2024-01-27T03:16:09;29.50;25.75;19.00
71794;PMS7003;59641;45.188;5.712;2024-01-27T03:18:35;24.67;22.67;18.00
71794;PMS7003;59641;45.188;5.712;2024-01-27T03:21:02;24.25;23.75;17.75
71794;PMS7003;59641;45.188;5.712;2024-01-27T03:23:27;22.50;21.50;16.25
71794;PMS7003;59641;45.188;5.712;2024-01-27T03:25:53;21.75;20.75;15.00
71794;PMS7003;59641;45.188;5.712;2024-01-27T03:28:19;24.75;23.00;15.50
71794;PMS7003;59641;45.188;5.712;2024-01-27T03:30:44;26.25;21.75;15.00
71794;PMS7003;59641;45.188;5.712;2024-01-27T03:33:10;22.75;22.75;15.75
71794;PMS7003;59641;45.188;5.712;2024-01-27T03:35:37;23.00;21.25;17.75
71794;PMS7003;59641;45.188;5.712;2024-01-27T03:38:03;23.25;21.75;15.00
71794;PMS7003;59641;45.188;5.712;2024-01-27T03:40:28;18.50;18.00;14.00
71794;PMS7003;59641;45.188;5.712;2024-01-27T03:42:53;18.00;15.00;12.00
71794;PMS7003;59641;45.188;5.712;2024-01-27T03:45:19;18.00;18.00;14.25
71794;PMS7003;59641;45.188;5.712;2024-01-27T03:47:44;22.50;20.50;16.00
71794;PMS7003;59641;45.188;5.712;2024-01-27T03:50:09;22.25;19.75;14.00
71794;PMS7003;59641;45.188;5.712;2024-01-27T03:52:35;15.25;15.25;13.00
71794;PMS7003;59641;45.188;5.712;2024-01-27T03:55:01;20.75;20.75;15.00
71794;PMS7003;59641;45.188;5.712;2024-01-27T03:57:26;20.00;20.00;13.75
71794;PMS7003;59641;45.188;5.712;2024-01-27T03:59:51;15.00;14.50;12.00
71794;PMS7003;59641;45.188;5.712;2024-01-27T04:02:17;18.75;16.75;14.00
71794;PMS7003;59641;45.188;5.712;2024-01-27T04:04:42;18.75;18.75;14.75
71794;PMS7003;59641;45.188;5.712;2024-01-27T04:07:07;18.25;17.00;14.00
71794;PMS7003;59641;45.188;5.712;2024-01-27T04:09:33;21.25;19.50;14.75
71794;PMS7003;59641;45.188;5.712;2024-01-27T04:11:58;18.50;16.75;12.00
71794;PMS7003;59641;45.188;5.712;2024-01-27T04:14:23;18.25;17.25;13.00
71794;PMS7003;59641;45.188;5.712;2024-01-27T04:16:49;20.50;16.50;12.00
71794;PMS7003;59641;45.188;5.712;2024-01-27T04:19:14;18.00;17.00;14.00
71794;PMS7003;59641;45.188;5.712;2024-01-27T04:21:39;17.00;15.75;12.25
71794;PMS7003;59641;45.188;5.712;2024-01-27T04:24:06;20.25;18.25;13.00
71794;PMS7003;59641;45.188;5.712;2024-01-27T04:26:31;20.50;19.25;14.00
71794;PMS7003;59641;45.188;5.712;2024-01-27T04:28:57;18.00;17.25;12.25
71794;PMS7003;59641;45.188;5.712;2024-01-27T04:31:22;19.50;16.50;13.00
71794;PMS7003;59641;45.188;5.712;2024-01-27T04:33:49;18.75;17.00;11.00
71794;PMS7003;59641;45.188;5.712;2024-01-27T04:36:14;21.00;16.75;13.50
71794;PMS7003;59641;45.188;5.712;2024-01-27T04:38:39;14.00;14.00;11.00
71794;PMS7003;59641;45.188;5.712;2024-01-27T04:41:05;17.25;15.50;11.75
71794;PMS7003;59641;45.188;5.712;2024-01-27T04:43:30;16.25;14.50;12.75
71794;PMS7003;59641;45.188;5.712;2024-01-27T04:45:55;16.50;15.50;12.25
71794;PMS7003;59641;45.188;5.712;2024-01-27T04:48:20;14.25;14.00;11.00
71794;PMS7003;59641;45.188;5.712;2024-01-27T04:50:46;10.75;10.25;7.75
71794;PMS7003;59641;45.188;5.712;2024-01-27T04:53:11;13.00;12.00;8.25
71794;PMS7003;59641;45.188;5.712;2024-01-27T04:55:37;17.00;15.75;11.75
71794;PMS7003;59641;45.188;5.712;2024-01-27T04:58:03;12.75;11.00;9.00
71794;PMS7003;59641;45.188;5.712;2024-01-27T05:00:28;14.25;12.00;11.00
71794;PMS7003;59641;45.188;5.712;2024-01-27T05:02:54;16.00;12.00;9.00
71794;PMS7003;59641;45.188;5.712;2024-01-27T05:05:19;15.00;14.00;10.00
71794;PMS7003;59641;45.188;5.712;2024-01-27T05:07:45;7.50;5.25;1.00
71794;PMS7003;59641;45.188;5.712;2024-01-27T05:10:12;14.00;13.50;11.00
71794;PMS7003;59641;45.188;5.712;2024-01-27T05:12:37;13.00;12.75;10.25
71794;PMS7003;59641;45.188;5.712;2024-01-27T05:15:03;12.00;12.00;10.00
71794;PMS7003;59641;45.188;5.712;2024-01-27T05:17:28;13.25;12.00;10.00
71794;PMS7003;59641;45.188;5.712;2024-01-27T05:19:53;14.00;12.25;8.25
71794;PMS7003;59641;45.188;5.712;2024-01-27T05:22:19;11.25;11.25;9.00
71794;PMS7003;59641;45.188;5.712;2024-01-27T05:24:44;12.50;12.50;10.00
71794;PMS7003;59641;45.188;5.712;2024-01-27T05:27:10;10.00;9.25;5.75
71794;PMS7003;59641;45.188;5.712;2024-01-27T05:29:36;10.25;10.25;8.25
71794;PMS7003;59641;45.188;5.712;2024-01-27T05:32:02;15.75;14.25;11.25
71794;PMS7003;59641;45.188;5.712;2024-01-27T05:34:28;13.75;13.00;10.00
71794;PMS7003;59641;45.188;5.712;2024-01-27T05:36:53;13.25;12.00;8.00
71794;PMS7003;59641;45.188;5.712;2024-01-27T05:39:18;14.25;14.00;10.25
71794;PMS7003;59641;45.188;5.712;2024-01-27T05:41:44;18.00;17.50;12.50
71794;PMS7003;59641;45.188;5.712;2024-01-27T05:44:09;9.25;9.25;8.75
71794;PMS7003;59641;45.188;5.712;2024-01-27T05:46:34;17.00;15.25;9.75
71794;PMS7003;59641;45.188;5.712;2024-01-27T05:49:00;18.75;17.25;12.25
71794;PMS7003;59641;45.188;5.712;2024-01-27T05:51:28;13.75;13.50;10.00
71794;PMS7003;59641;45.188;5.712;2024-01-27T05:53:55;13.00;12.00;10.50
71794;PMS7003;59641;45.188;5.712;2024-01-27T05:56:20;17.25;16.00;13.00
71794;PMS7003;59641;45.188;5.712;2024-01-27T05:58:46;19.00;14.75;13.00
71794;PMS7003;59641;45.188;5.712;2024-01-27T06:01:11;20.00;16.75;12.75
71794;PMS7003;59641;45.188;5.712;2024-01-27T06:03:37;18.00;18.00;13.00
71794;PMS7003;59641;45.188;5.712;2024-01-27T06:06:02;18.25;17.00;12.00
71794;PMS7003;59641;45.188;5.712;2024-01-27T06:08:28;19.25;17.50;13.25
71794;PMS7003;59641;45.188;5.712;2024-01-27T06:10:54;14.00;13.25;10.00
71794;PMS7003;59641;45.188;5.712;2024-01-27T06:13:19;18.25;14.50;11.50
71794;PMS7003;59641;45.188;5.712;2024-01-27T06:15:44;19.25;17.75;13.00
71794;PMS7003;59641;45.188;5.712;2024-01-27T06:18:10;19.50;18.00;13.75
71794;PMS7003;59641;45.188;5.712;2024-01-27T06:20:35;18.25;16.75;12.25
71794;PMS7003;59641;45.188;5.712;2024-01-27T06:23:00;21.50;16.00;13.00
71794;PMS7003;59641;45.188;5.712;2024-01-27T06:25:25;15.50;15.50;12.00
71794;PMS7003;59641;45.188;5.712;2024-01-27T06:27:51;16.25;15.25;12.75
71794;PMS7003;59641;45.188;5.712;2024-01-27T06:30:16;18.75;17.00;12.25
71794;PMS7003;59641;45.188;5.712;2024-01-27T06:32:43;17.25;16.00;13.25
71794;PMS7003;59641;45.188;5.712;2024-01-27T06:35:08;19.00;19.00;14.50
71794;PMS7003;59641;45.188;5.712;2024-01-27T06:37:33;16.75;16.25;14.00
71794;PMS7003;59641;45.188;5.712;2024-01-27T06:39:59;19.25;16.00;11.00
71794;PMS7003;59641;45.188;5.712;2024-01-27T06:42:24;19.50;16.75;13.00
71794;PMS7003;59641;45.188;5.712;2024-01-27T06:44:49;21.75;17.75;14.00
71794;PMS7003;59641;45.188;5.712;2024-01-27T06:47:15;17.00;15.25;13.00
71794;PMS7003;59641;45.188;5.712;2024-01-27T06:49:40;18.75;18.25;12.75
71794;PMS7003;59641;45.188;5.712;2024-01-27T06:52:06;18.25;15.50;11.25
71794;PMS7003;59641;45.188;5.712;2024-01-27T06:54:31;20.75;18.00;13.50
71794;PMS7003;59641;45.188;5.712;2024-01-27T06:56:58;17.50;16.50;13.50
71794;PMS7003;59641;45.188;5.712;2024-01-27T06:59:24;18.75;17.50;14.50
71794;PMS7003;59641;45.188;5.712;2024-01-27T07:01:50;18.00;17.00;13.00
71794;PMS7003;59641;45.188;5.712;2024-01-27T07:04:15;19.75;18.25;12.50
71794;PMS7003;59641;45.188;5.712;2024-01-27T07:06:41;19.00;17.00;13.00
71794;PMS7003;59641;45.188;5.712;2024-01-27T07:09:06;20.00;18.25;15.25
71794;PMS7003;59641;45.188;5.712;2024-01-27T07:11:32;24.75;22.00;15.00
71794;PMS7003;59641;45.188;5.712;2024-01-27T07:13:58;19.75;18.75;14.50
71794;PMS7003;59641;45.188;5.712;2024-01-27T07:16:23;20.50;20.25;15.00
71794;PMS7003;59641;45.188;5.712;2024-01-27T07:18:49;22.50;21.75;16.25
71794;PMS7003;59641;45.188;5.712;2024-01-27T07:21:15;20.00;19.50;16.00
71794;PMS7003;59641;45.188;5.712;2024-01-27T07:23:42;20.50;20.50;15.25
71794;PMS7003;59641;45.188;5.712;2024-01-27T07:26:09;15.50;15.00;13.00
71794;PMS7003;59641;45.188;5.712;2024-01-27T07:28:34;25.33;22.00;16.00
71794;PMS7003;59641;45.188;5.712;2024-01-27T07:31:00;20.75;20.00;15.00
71794;PMS7003;59641;45.188;5.712;2024-01-27T07:33:25;23.50;20.50;16.75
71794;PMS7003;59641;45.188;5.712;2024-01-27T07:35:51;21.25;20.50;15.25
71794;PMS7003;59641;45.188;5.712;2024-01-27T07:38:16;24.00;22.25;16.00
71794;PMS7003;59641;45.188;5.712;2024-01-27T07:40:41;21.50;21.25;14.50
71794;PMS7003;59641;45.188;5.712;2024-01-27T07:43:07;23.50;23.25;15.00
71794;PMS7003;59641;45.188;5.712;2024-01-27T07:45:32;25.25;20.75;15.00
71794;PMS7003;59641;45.188;5.712;2024-01-27T07:47:58;23.00;21.25;15.75
71794;PMS7003;59641;45.188;5.712;2024-01-27T07:50:23;20.75;17.50;13.50
71794;PMS7003;59641;45.188;5.712;2024-01-27T07:52:48;23.00;20.50;16.75
71794;PMS7003;59641;45.188;5.712;2024-01-27T07:55:14;23.75;23.50;17.25
71794;PMS7003;59641;45.188;5.712;2024-01-27T07:57:39;22.50;22.50;16.75
71794;PMS7003;59641;45.188;5.712;2024-01-27T08:00:05;20.33;20.00;15.67
71794;PMS7003;59641;45.188;5.712;2024-01-27T08:02:31;20.50;20.25;15.25
71794;PMS7003;59641;45.188;5.712;2024-01-27T08:04:57;26.00;26.00;18.25
71794;PMS7003;59641;45.188;5.712;2024-01-27T08:07:23;22.75;21.50;15.50
71794;PMS7003;59641;45.188;5.712;2024-01-27T08:09:48;21.00;17.75;16.00
71794;PMS7003;59641;45.188;5.712;2024-01-27T08:12:14;22.75;21.75;15.00
71794;PMS7003;59641;45.188;5.712;2024-01-27T08:14:39;27.00;23.75;16.50
71794;PMS7003;59641;45.188;5.712;2024-01-27T08:17:04;24.50;23.00;16.00
71794;PMS7003;59641;45.188;5.712;2024-01-27T08:19:30;25.50;21.25;16.00
71794;PMS7003;59641;45.188;5.712;2024-01-27T08:21:56;23.25;23.00;17.50
71794;PMS7003;59641;45.188;5.712;2024-01-27T08:24:22;24.50;22.00;17.00
71794;PMS7003;59641;45.188;5.712;2024-01-27T08:26:49;18.00;14.75;10.50
71794;PMS7003;59641;45.188;5.712;2024-01-27T08:29:14;21.50;21.00;16.75
71794;PMS7003;59641;45.188;5.712;2024-01-27T08:31:40;23.00;22.25;17.25
71794;PMS7003;59641;45.188;5.712;2024-01-27T08:34:05;24.00;22.00;17.50
71794;PMS7003;59641;45.188;5.712;2024-01-27T08:36:31;23.25;23.25;17.50
71794;PMS7003;59641;45.188;5.712;2024-01-27T08:38:57;24.25;22.75;16.00
71794;PMS7003;59641;45.188;5.712;2024-01-27T08:41:22;30.75;25.50;17.25
71794;PMS7003;59641;45.188;5.712;2024-01-27T08:43:48;22.75;22.75;17.25
71794;PMS7003;59641;45.188;5.712;2024-01-27T08:46:13;24.50;22.00;17.75
71794;PMS7003;59641;45.188;5.712;2024-01-27T08:48:40;26.25;23.00;16.75
71794;PMS7003;59641;45.188;5.712;2024-01-27T08:51:08;23.50;20.00;15.00
71794;PMS7003;59641;45.188;5.712;2024-01-27T08:53:37;24.00;22.50;16.50
71794;PMS7003;59641;45.188;5.712;2024-01-27T08:56:03;21.25;19.25;14.75
71794;PMS7003;59641;45.188;5.712;2024-01-27T08:58:29;23.50;22.25;16.00
71794;PMS7003;59641;45.188;5.712;2024-01-27T09:00:55;24.75;20.50;16.75
71794;PMS7003;59641;45.188;5.712;2024-01-27T09:03:20;27.25;24.75;18.25
71794;PMS7003;59641;45.188;5.712;2024-01-27T09:05:46;25.00;24.75;17.50
71794;PMS7003;59641;45.188;5.712;2024-01-27T09:08:12;24.25;23.75;17.25
71794;PMS7003;59641;45.188;5.712;2024-01-27T09:10:37;22.00;21.00;13.75
71794;PMS7003;59641;45.188;5.712;2024-01-27T09:13:02;25.00;23.75;17.75
71794;PMS7003;59641;45.188;5.712;2024-01-27T09:15:28;30.00;29.67;19.00
71794;PMS7003;59641;45.188;5.712;2024-01-27T09:17:53;20.00;17.50;13.25
71794;PMS7003;59641;45.188;5.712;2024-01-27T09:20:19;27.00;25.25;17.75
71794;PMS7003;59641;45.188;5.712;2024-01-27T09:22:44;27.75;23.75;18.00
71794;PMS7003;59641;45.188;5.712;2024-01-27T09:25:12;22.00;22.00;17.00
71794;PMS7003;59641;45.188;5.712;2024-01-27T09:27:38;26.50;24.00;18.25
71794;PMS7003;59641;45.188;5.712;2024-01-27T09:30:04;23.75;22.00;17.50
71794;PMS7003;59641;45.188;5.712;2024-01-27T09:32:30;28.75;27.50;20.00
71794;PMS7003;59641;45.188;5.712;2024-01-27T09:34:55;30.75;26.00;17.00
71794;PMS7003;59641;45.188;5.712;2024-01-27T09:37:21;25.00;23.00;15.75
71794;PMS7003;59641;45.188;5.712;2024-01-27T09:39:46;27.25;26.00;20.00
71794;PMS7003;59641;45.188;5.712;2024-01-27T09:42:12;21.50;17.75;10.50
71794;PMS7003;59641;45.188;5.712;2024-01-27T09:44:44;28.50;28.00;20.00
71794;PMS7003;59641;45.188;5.712;2024-01-27T09:47:13;29.00;26.50;19.75
71794;PMS7003;59641;45.188;5.712;2024-01-27T09:49:41;22.75;20.75;16.50
71794;PMS7003;59641;45.188;5.712;2024-01-27T09:52:07;29.50;28.25;19.25
71794;PMS7003;59641;45.188;5.712;2024-01-27T09:54:35;30.67;26.00;20.00
71794;PMS7003;59641;45.188;5.712;2024-01-27T09:57:01;30.00;28.33;19.67
71794;PMS7003;59641;45.188;5.712;2024-01-27T09:59:27;28.00;27.33;19.00
71794;PMS7003;59641;45.188;5.712;2024-01-27T10:01:54;28.33;26.67;20.00
71794;PMS7003;59641;45.188;5.712;2024-01-27T10:04:22;27.75;23.25;16.75
71794;PMS7003;59641;45.188;5.712;2024-01-27T10:06:47;23.00;21.25;16.00
71794;PMS7003;59641;45.188;5.712;2024-01-27T10:09:15;30.75;27.00;19.25
71794;PMS7003;59641;45.188;5.712;2024-01-27T10:11:42;33.00;29.33;20.67
71794;PMS7003;59641;45.188;5.712;2024-01-27T10:14:11;33.00;30.00;19.00
71794;PMS7003;59641;45.188;5.712;2024-01-27T10:16:40;30.75;26.75;19.00
71794;PMS7003;59641;45.188;5.712;2024-01-27T10:19:08;30.50;27.00;20.00
71794;PMS7003;59641;45.188;5.712;2024-01-27T10:21:40;32.00;27.67;18.67
71794;PMS7003;59641;45.188;5.712;2024-01-27T10:24:05;32.25;28.75;19.50
71794;PMS7003;59641;45.188;5.712;2024-01-27T10:26:31;27.00;25.00;18.50
71794;PMS7003;59641;45.188;5.712;2024-01-27T10:28:57;23.75;23.00;15.00
71794;PMS7003;59641;45.188;5.712;2024-01-27T10:31:26;23.75;22.75;17.00
71794;PMS7003;59641;45.188;5.712;2024-01-27T10:33:53;27.50;27.00;18.50
71794;PMS7003;59641;45.188;5.712;2024-01-27T10:36:19;29.25;26.50;19.00
71794;PMS7003;59641;45.188;5.712;2024-01-27T10:38:45;24.25;24.25;16.00
71794;PMS7003;59641;45.188;5.712;2024-01-27T10:41:10;25.00;24.00;17.00
71794;PMS7003;59641;45.188;5.712;2024-01-27T10:43:36;24.25;22.50;17.75
71794;PMS7003;59641;45.188;5.712;2024-01-27T10:46:05;24.50;23.25;16.75
71794;PMS7003;59641;45.188;5.712;2024-01-27T10:48:31;24.25;21.25;15.75
71794;PMS7003;59641;45.188;5.712;2024-01-27T10:51:00;27.50;24.00;16.25
71794;PMS7003;59641;45.188;5.712;2024-01-27T10:53:32;22.25;20.00;14.00
71794;PMS7003;59641;45.188;5.712;2024-01-27T10:56:00;22.50;19.25;13.50
71794;PMS7003;59641;45.188;5.712;2024-01-27T10:58:29;18.75;18.50;13.00
71794;PMS7003;59641;45.188;5.712;2024-01-27T11:00:56;25.00;22.50;14.75
71794;PMS7003;59641;45.188;5.712;2024-01-27T11:03:23;22.00;21.25;14.50
71794;PMS7003;59641;45.188;5.712;2024-01-27T11:05:50;21.50;20.25;15.50
71794;PMS7003;59641;45.188;5.712;2024-01-27T11:08:17;23.50;20.25;16.00
71794;PMS7003;59641;45.188;5.712;2024-01-27T11:10:44;26.00;24.00;15.50
71794;PMS7003;59641;45.188;5.712;2024-01-27T11:13:10;22.50;21.00;14.50
71794;PMS7003;59641;45.188;5.712;2024-01-27T11:15:36;25.25;22.50;15.00
71794;PMS7003;59641;45.188;5.712;2024-01-27T11:18:01;22.00;19.50;15.75
71794;PMS7003;59641;45.188;5.712;2024-01-27T11:20:32;24.50;20.00;13.25
71794;PMS7003;59641;45.188;5.712;2024-01-27T11:23:12;20.50;20.50;15.00
71794;PMS7003;59641;45.188;5.712;2024-01-27T11:25:39;19.25;18.25;13.50
71794;PMS7003;59641;45.188;5.712;2024-01-27T11:28:15;23.75;22.75;15.50
71794;PMS7003;59641;45.188;5.712;2024-01-27T11:30:45;22.75;20.25;14.75
71794;PMS7003;59641;45.188;5.712;2024-01-27T11:33:12;19.25;18.75;13.50
71794;PMS7003;59641;45.188;5.712;2024-01-27T11:35:37;23.50;22.75;15.75
71794;PMS7003;59641;45.188;5.712;2024-01-27T11:38:03;19.75;18.50;15.25
71794;PMS7003;59641;45.188;5.712;2024-01-27T11:40:28;26.25;23.75;15.50
71794;PMS7003;59641;45.188;5.712;2024-01-27T11:42:58;23.75;21.25;15.00
71794;PMS7003;59641;45.188;5.712;2024-01-27T11:45:26;22.25;21.50;15.75
71794;PMS7003;59641;45.188;5.712;2024-01-27T11:47:54;21.75;18.75;12.75
71794;PMS7003;59641;45.188;5.712;2024-01-27T11:50:20;20.50;18.50;14.25
71794;PMS7003;59641;45.188;5.712;2024-01-27T11:52:46;20.00;19.00;13.50
71794;PMS7003;59641;45.188;5.712;2024-01-27T11:55:12;20.25;19.75;14.50
71794;PMS7003;59641;45.188;5.712;2024-01-27T11:57:40;20.00;17.75;13.00
71794;PMS7003;59641;45.188;5.712;2024-01-27T12:00:06;17.00;16.50;11.50
71794;PMS7003;59641;45.188;5.712;2024-01-27T12:02:31;17.25;15.75;11.00
71794;PMS7003;59641;45.188;5.712;2024-01-27T12:04:57;14.50;13.25;9.75
71794;PMS7003;59641;45.188;5.712;2024-01-27T12:07:23;12.00;11.50;9.00
71794;PMS7003;59641;45.188;5.712;2024-01-27T12:09:50;15.20;12.00;9.40
71794;PMS7003;59641;45.188;5.712;2024-01-27T12:12:16;12.25;11.75;8.50
71794;PMS7003;59641;45.188;5.712;2024-01-27T12:14:44;11.75;10.25;8.75
71794;PMS7003;59641;45.188;5.712;2024-01-27T12:17:10;12.75;12.00;8.50
71794;PMS7003;59641;45.188;5.712;2024-01-27T12:19:36;12.75;12.75;9.00
71794;PMS7003;59641;45.188;5.712;2024-01-27T12:22:03;13.80;12.60;9.40
71794;PMS7003;59641;45.188;5.712;2024-01-27T12:24:29;14.25;12.75;10.00
71794;PMS7003;59641;45.188;5.712;2024-01-27T12:26:55;15.00;14.00;11.00
71794;PMS7003;59641;45.188;5.712;2024-01-27T12:29:22;17.40;12.80;10.20
71794;PMS7003;59641;45.188;5.712;2024-01-27T12:31:48;13.50;12.25;10.00
71794;PMS7003;59641;45.188;5.712;2024-01-27T12:34:14;13.00;13.00;9.00
71794;PMS7003;59641;45.188;5.712;2024-01-27T12:36:42;12.50;11.50;9.25
71794;PMS7003;59641;45.188;5.712;2024-01-27T12:39:08;11.00;11.00;8.60
71794;PMS7003;59641;45.188;5.712;2024-01-27T12:41:34;13.00;13.00;8.50
71794;PMS7003;59641;45.188;5.712;2024-01-27T12:44:00;15.75;15.00;11.25
71794;PMS7003;59641;45.188;5.712;2024-01-27T12:46:26;16.50;15.00;11.50
71794;PMS7003;59641;45.188;5.712;2024-01-27T12:48:52;17.00;13.60;11.40
71794;PMS7003;59641;45.188;5.712;2024-01-27T12:51:18;16.00;14.25;10.75
71794;PMS7003;59641;45.188;5.712;2024-01-27T12:53:43;13.50;12.25;8.75
71794;PMS7003;59641;45.188;5.712;2024-01-27T12:56:10;14.00;13.00;8.25
71794;PMS7003;59641;45.188;5.712;2024-01-27T12:58:36;11.00;11.00;8.00
71794;PMS7003;59641;45.188;5.712;2024-01-27T13:01:01;9.00;9.00;7.00
71794;PMS7003;59641;45.188;5.712;2024-01-27T13:03:27;9.25;9.25;7.25
71794;PMS7003;59641;45.188;5.712;2024-01-27T13:05:53;7.50;7.50;6.50
71794;PMS7003;59641;45.188;5.712;2024-01-27T13:08:20;6.80;6.60;5.60
71794;PMS7003;59641;45.188;5.712;2024-01-27T13:10:45;7.75;7.75;5.00
71794;PMS7003;59641;45.188;5.712;2024-01-27T13:13:11;7.75;7.75;6.25
71794;PMS7003;59641;45.188;5.712;2024-01-27T13:15:36;14.25;12.50;9.50
71794;PMS7003;59641;45.188;5.712;2024-01-27T13:18:01;12.00;9.25;7.50
71794;PMS7003;59641;45.188;5.712;2024-01-27T13:20:27;13.50;10.75;8.25
71794;PMS7003;59641;45.188;5.712;2024-01-27T13:22:52;6.75;6.75;6.00
71794;PMS7003;59641;45.188;5.712;2024-01-27T13:25:18;7.20;6.40;5.20
71794;PMS7003;59641;45.188;5.712;2024-01-27T13:27:44;8.00;6.50;5.25
71794;PMS7003;59641;45.188;5.712;2024-01-27T13:30:10;8.40;8.00;6.60
71794;PMS7003;59641;45.188;5.712;2024-01-27T13:32:37;6.20;6.20;4.20
71794;PMS7003;59641;45.188;5.712;2024-01-27T13:35:02;8.00;7.50;4.00
71794;PMS7003;59641;45.188;5.712;2024-01-27T13:37:27;8.00;6.50;5.50
71794;PMS7003;59641;45.188;5.712;2024-01-27T13:39:58;8.00;7.20;6.20
71794;PMS7003;59641;45.188;5.712;2024-01-27T13:42:23;7.25;7.25;5.75